Montvale, VA (24122)

7:49 AM EDT on September 30, 2016 (GMT -0400)
Upper Goose Creek Valley at BRD Farm | | Change Station

Elev 1299 ft 37.47 °N, 79.67 °W | Updated 38 seconds ago

Overcast
Overcast
65.3 °F
Feels Like 65.3 °F
N
0.0
Wind Variable Wind from SE
Gusts 8.0 mph

Today
High -- | Low -- °F
--% Chance of Precip.
Yesterday
High -- | Low -- °F
Precip. -- in
Pressure 30.03 in
Visibility 10.0 miles
Clouds Overcast 1300 ft
Dew Point 63 °F
Humidity 92%
Rainfall 0.02 in
Snow Depth Not available.
7:13 AM 7:02 PM
Waning Crescent, 0% visible
METAR KROA 301054Z 09004KT 10SM OVC013 19/19 A3005 RMK AO2 RAB33E42 SLP167 P0000 T01940189
Pressure 30.03 in
Visibility 10.0 miles
Clouds Overcast 1300 ft
Dew Point 63 °F
Humidity 92%
Rainfall 0.02 in
Snow Depth Not available.
7:13 AM 7:02 PM
Waning Crescent, 0% visible
METAR KROA 301054Z 09004KT 10SM OVC013 19/19 A3005 RMK AO2 RAB33E42 SLP167 P0000 T01940189

10-Day Weather Forecast

Almanac

Astronomy

Sep. 30, 2016 Rise Set
Actual Time
Civil Twilight
Nautical Twilight
Astronomical Twilight
Moon
Length of Visible Light
Length of Day
Tomorrow will be .
, % of the Moon is Illuminated

Today's Extremes

State Highs State Lows

Community

WunderPhotos

Upload Photos

1,942,697 photos uploaded!

WunderBlog® & News

Nearby

Air Quality

  Air Quality AQ Index Pollutant
Not available.

Snow Depth

Station Depth Elevation

Earthquake Activity

City Distance Mag. Time & Date
Minimum magnitude displayed is 2.5.

Coastal Water Temperatures

Place Temperature

Stations

Nearby Weather Stations

Station Location Temp. Windchill Dew Point Humidity Wind Precip. Elev Updated Type
                   

Watches & Warnings

There are currently no watches in effect.